Time;durP1;ratioP1;P1;durP2;ratioP2;P2;SDS_P1;SDS_P2;PMS_P1;PMS_P2;Temp;Humidity;BMP_temperature;BMP_pressure;BME280_temperature;BME280_humidity;BME280_pressure;Samples;Min_cycle;Max_cycle;Signal;HPM_P1;HPM_P2
2021/12/31 00:00:38;;;;;;;8.27;5.10;;;;;;;14.34;69.62;100495.91;4975418;28;121847;-93
2021/12/31 00:03:20;;;;;;;;;;;;;;;;;;;;;
2021/12/31 00:05:48;;;;;;;6.38;4.07;;;;;;;14.46;70.29;100522.47;4987300;28;119434;-93
2021/12/31 00:08:16;;;;;;;4.55;2.72;;;;;;;14.20;70.37;100478.19;5003106;28;120335;-94
2021/12/31 00:10:43;;;;;;;3.40;2.38;;;;;;;14.48;70.00;100517.22;4951694;28;119992;-93
2021/12/31 00:13:11;;;;;;;3.58;2.60;;;;;;;14.50;70.06;100520.25;4969924;28;120837;-93
2021/12/31 00:15:39;;;;;;;1.95;1.70;;;;;;;14.67;69.75;100546.09;4949420;28;122053;-94
2021/12/31 00:18:10;;;;;;;7.45;2.35;;;;;;;14.44;70.36;100505.63;4974690;28;119701;-92
2021/12/31 00:20:40;;;;;;;2.08;1.40;;;;;;;14.58;69.95;100523.34;4966472;28;121865;-93
2021/12/31 00:23:27;;;;;;;2.50;1.63;;;;;;;14.52;69.75;100523.28;4953139;28;121219;-94
2021/12/31 00:25:58;;;;;;;2.75;2.10;;;;;;;14.40;69.94;100507.78;4953198;28;119480;-93
2021/12/31 00:28:24;;;;;;;2.97;2.15;;;;;;;14.52;70.41;100526.03;4965398;28;121919;-93
2021/12/31 00:30:53;;;;;;;4.13;2.00;;;;;;;14.37;70.67;100503.22;4973893;28;121560;-93
2021/12/31 00:33:26;;;;;;;4.22;1.60;;;;;;;14.65;70.17;100536.75;4990824;28;121025;-92
2021/12/31 00:35:55;;;;;;;3.67;1.92;;;;;;;14.51;71.03;100526.53;4989337;28;121181;-94
2021/12/31 00:38:20;;;;;;;2.88;1.80;;;;;;;14.29;70.66;100477.28;4974238;28;118818;-93
2021/12/31 00:40:46;;;;;;;3.55;2.00;;;;;;;14.36;70.98;100476.88;4989523;28;120575;-93
2021/12/31 00:43:18;;;;;;;2.40;1.38;;;;;;;14.17;70.44;100459.03;4981580;28;121695;-92
2021/12/31 00:45:47;;;;;;;3.42;1.67;;;;;;;14.67;71.11;100529.53;4967213;28;123166;-94
2021/12/31 00:48:16;;;;;;;1.30;1.20;;;;;;;14.35;70.67;100472.59;4999377;28;120676;-91
2021/12/31 00:50:44;;;;;;;1.80;1.40;;;;;;;14.74;70.31;100529.09;4970092;28;121414;-94
2021/12/31 00:53:10;;;;;;;3.58;2.13;;;;;;;14.41;71.29;100487.22;4981066;28;119486;-92
2021/12/31 00:55:44;;;;;;;3.28;1.83;;;;;;;14.56;71.23;100506.53;4968362;28;121379;-92
2021/12/31 00:58:29;;;;;;;2.95;1.70;;;;;;;14.43;71.58;100487.53;4969718;28;119258;-94
2021/12/31 01:00:55;;;;;;;3.53;1.40;;;;;;;14.57;70.40;100514.31;4985603;28;119872;-93
2021/12/31 01:03:23;;;;;;;2.25;1.85;;;;;;;14.32;70.81;100482.59;4973223;28;121418;-92
2021/12/31 01:05:51;;;;;;;2.35;1.73;;;;;;;14.68;71.31;100538.56;4969444;28;118721;-93
2021/12/31 01:08:19;;;;;;;3.20;2.10;;;;;;;14.45;71.84;100498.88;4965258;28;120681;-92
2021/12/31 01:10:48;;;;;;;2.58;1.30;;;;;;;14.44;70.41;100483.56;4995006;28;120596;-94
2021/12/31 01:13:26;;;;;;;4.50;1.35;;;;;;;14.33;70.84;100484.13;4973354;28;120005;-95
2021/12/31 01:15:58;;;;;;;4.28;1.35;;;;;;;14.53;70.31;100508.25;4976526;28;122055;-93
2021/12/31 01:21:21;;;;;;;1.80;1.50;;;;;;;14.64;70.93;100530.47;4920790;28;120769;-93
2021/12/31 01:23:53;;;;;;;3.00;1.88;;;;;;;14.38;71.67;100491.69;4958086;28;122489;-91
2021/12/31 01:26:22;;;;;;;2.08;1.38;;;;;;;14.61;71.82;100525.91;4970518;28;118713;-94
2021/12/31 01:28:58;;;;;;;2.15;1.40;;;;;;;14.27;71.81;100480.53;4985686;28;121082;-91
2021/12/31 01:31:27;;;;;;;2.13;1.42;;;;;;;14.45;71.13;100490.59;4990177;28;121408;-94
2021/12/31 01:33:55;;;;;;;3.05;1.75;;;;;;;14.60;71.24;100524.38;4951512;28;120395;-94
2021/12/31 01:36:24;;;;;;;3.50;1.80;;;;;;;14.35;70.59;100472.59;4957156;28;121638;-93
2021/12/31 01:38:49;;;;;;;4.15;1.90;;;;;;;14.52;71.81;100506.72;4981233;28;119397;-95
2021/12/31 01:41:35;;;;;;;6.37;2.57;;;;;;;14.27;71.87;100465.97;4984728;28;119477;-93
2021/12/31 01:44:21;;;;;;;9.45;2.70;;;;;;;14.81;71.87;100543.75;4955573;28;122482;-93
2021/12/31 01:46:58;;;;;;;8.02;2.80;;;;;;;14.53;71.34;100496.44;4969625;28;119446;-94
2021/12/31 01:49:32;;;;;;;8.60;3.42;;;;;;;14.56;71.17;100493.47;4957610;28;121096;-94
2021/12/31 01:52:04;;;;;;;11.68;3.60;;;;;;;14.36;71.18;100476.88;4982129;28;120644;-93
2021/12/31 01:54:37;;;;;;;9.40;3.22;;;;;;;14.67;71.13;100509.44;4950374;28;120297;-92
2021/12/31 01:57:17;;;;;;;9.30;3.80;;;;;;;14.39;71.23;100478.66;4954252;28;122466;-92
2021/12/31 01:59:46;;;;;;;9.98;3.10;;;;;;;14.35;71.08;100467.84;4975279;28;122427;-93
2021/12/31 02:02:15;;;;;;;7.90;2.80;;;;;;;14.83;71.04;100538.50;4950003;28;121195;-93
2021/12/31 02:04:41;;;;;;;8.68;2.67;;;;;;;14.64;71.59;100502.09;4965877;28;121910;-93
2021/12/31 02:07:08;;;;;;;9.52;2.60;;;;;;;14.37;70.98;100465.34;4965042;28;119771;-94
2021/12/31 02:09:45;;;;;;;9.15;2.50;;;;;;;14.39;70.71;100473.16;4981811;28;119342;-92
2021/12/31 02:12:48;;;;;;;;;;;;;;;;;;;;;
2021/12/31 02:15:19;;;;;;;24.42;11.25;;;;;;;14.57;70.96;100494.25;4982573;28;120492;-94
2021/12/31 02:17:47;;;;;;;11.95;4.05;;;;;;;14.24;70.40;100437.34;4970161;28;123021;-93
2021/12/31 02:20:19;;;;;;;10.20;3.60;;;;;;;14.43;70.82;100484.75;4947979;28;121309;-91
2021/12/31 02:23:06;;;;;;;9.73;2.83;;;;;;;14.56;71.23;100512.03;4959461;28;119571;-94
2021/12/31 02:25:39;;;;;;;9.67;2.57;;;;;;;14.32;71.23;100487.34;4992699;28;120687;-93
2021/12/31 02:28:11;;;;;;;12.80;3.60;;;;;;;14.71;70.30;100535.59;4966472;28;120094;-93
2021/12/31 02:30:37;;;;;;;13.52;3.55;;;;;;;14.28;70.97;100464.72;4989060;28;118728;-94
2021/12/31 02:33:24;;;;;;;11.82;3.55;;;;;;;14.15;71.22;100459.53;4990426;28;120569;-94
2021/12/31 02:35:53;;;;;;;14.55;4.35;;;;;;;14.64;71.26;100513.91;4972044;28;118758;-94
2021/12/31 02:38:21;;;;;;;12.32;3.70;;;;;;;14.52;71.65;100494.94;4980238;28;119506;-91
2021/12/31 02:40:51;;;;;;;17.00;4.57;;;;;;;14.45;71.63;100490.59;4964416;28;121146;-90
2021/12/31 02:43:20;;;;;;;23.75;5.82;;;;;;;14.53;71.07;100504.72;4961313;28;119461;-91
2021/12/31 02:45:48;;;;;;;24.60;5.90;;;;;;;14.46;71.53;100491.34;4980465;28;120714;-92
2021/12/31 02:48:24;;;;;;;25.27;6.72;;;;;;;14.57;71.58;100508.78;4963612;28;120524;-93
2021/12/31 02:50:52;;;;;;;26.23;6.82;;;;;;;14.78;70.92;100528.91;4984807;28;119561;-92
2021/12/31 02:53:28;;;;;;;30.38;6.50;;;;;;;14.52;70.80;100492.16;4963356;28;122081;-92
2021/12/31 02:56:00;;;;;;;30.58;6.60;;;;;;;14.35;70.82;100469.84;4961530;28;119356;-92
2021/12/31 02:58:32;;;;;;;29.17;6.32;;;;;;;14.61;70.70;100509.34;4970920;28;121007;-92
2021/12/31 03:01:00;;;;;;;29.30;7.00;;;;;;;14.77;70.90;100537.66;4989562;28;120948;-93
2021/12/31 03:03:31;;;;;;;21.25;5.28;;;;;;;14.60;71.39;100502.31;4947204;28;119469;-93
2021/12/31 03:06:00;;;;;;;20.83;4.47;;;;;;;14.41;71.49;100454.09;4967409;28;122038;-92
2021/12/31 03:08:30;;;;;;;19.70;4.85;;;;;;;14.84;72.05;100526.19;4960991;28;119466;-92
2021/12/31 03:11:03;;;;;;;22.42;5.32;;;;;;;14.38;72.01;100461.34;4965354;28;120663;-92
2021/12/31 03:13:31;;;;;;;19.55;5.10;;;;;;;14.83;72.21;100511.63;4952699;28;123214;-92
2021/12/31 03:16:02;;;;;;;24.70;4.93;;;;;;;14.60;71.02;100463.66;4980304;28;118688;-93
2021/12/31 03:18:31;;;;;;;19.55;4.93;;;;;;;14.77;71.61;100499.00;4958156;28;120805;-92
2021/12/31 03:21:20;;;;;;;20.58;4.75;;;;;;;14.67;71.79;100479.84;4951389;28;121884;-92
2021/12/31 03:23:54;;;;;;;18.63;5.07;;;;;;;14.86;72.53;100501.63;4987418;27;119589;-92
2021/12/31 03:26:24;;;;;;;19.38;4.78;;;;;;;14.41;72.09;100432.03;4952023;28;121151;-91
2021/12/31 03:28:52;;;;;;;22.85;5.47;;;;;;;14.84;71.99;100493.81;4966560;28;120111;-92
2021/12/31 03:31:20;;;;;;;21.30;5.57;;;;;;;14.80;71.16;100506.31;4984662;28;119498;-92
2021/12/31 03:33:48;;;;;;;34.03;7.32;;;;;;;14.63;70.96;100462.69;4985745;28;121549;-92
2021/12/31 03:36:14;;;;;;;29.90;6.72;;;;;;;14.63;71.01;100472.97;4967581;28;119825;-93
2021/12/31 03:38:42;;;;;;;40.60;8.02;;;;;;;14.59;71.34;100456.63;4954116;28;121023;-93
2021/12/31 03:41:10;;;;;;;38.60;7.60;;;;;;;14.89;71.36;100519.97;4998949;28;120353;-92
2021/12/31 03:43:38;;;;;;;34.95;7.07;;;;;;;14.78;71.43;100495.75;4967265;28;124406;-93
2021/12/31 03:46:04;;;;;;;33.40;7.35;;;;;;;14.63;71.22;100468.22;4955970;28;120682;-92
2021/12/31 03:48:32;;;;;;;32.53;6.90;;;;;;;14.46;71.19;100433.41;4972529;28;122722;-92
2021/12/31 03:50:58;;;;;;;35.90;6.93;;;;;;;14.51;71.92;100438.97;4976518;28;119376;-93
2021/12/31 03:53:35;;;;;;;34.17;7.30;;;;;;;14.58;71.78;100455.13;4968630;28;122703;-92
2021/12/31 03:56:01;;;;;;;34.42;7.85;;;;;;;14.68;72.02;100464.78;4973745;28;119411;-92
2021/12/31 03:58:30;;;;;;;31.92;6.72;;;;;;;14.70;72.06;100461.53;4988064;28;120983;-94
2021/12/31 04:01:11;;;;;;;;;;;;;;;;;;;;;
2021/12/31 04:03:40;;;;;;;30.52;6.72;;;;;;;14.55;71.15;100430.47;4982891;28;119186;-93
2021/12/31 04:06:11;;;;;;;29.05;6.43;;;;;;;14.59;71.61;100442.06;4988725;28;119406;-93
2021/12/31 04:08:57;;;;;;;35.28;7.07;;;;;;;14.56;71.19;100432.75;4967441;28;120579;-92
2021/12/31 04:11:32;;;;;;;30.08;6.07;;;;;;;14.70;71.39;100451.25;4972570;28;119559;-93
2021/12/31 04:14:00;;;;;;;31.73;6.07;;;;;;;14.82;70.63;100470.69;4977345;28;121207;-92
2021/12/31 04:16:30;;;;;;;26.13;6.38;;;;;;;14.98;71.85;100514.34;4976645;28;119593;-93
2021/12/31 04:19:15;;;;;;;31.60;7.13;;;;;;;14.80;71.71;100471.19;4974417;28;121034;-93
2021/12/31 04:21:49;;;;;;;29.05;6.82;;;;;;;14.98;71.77;100506.81;4958588;28;124796;-94
2021/12/31 04:24:51;;;;;;;;;;;;;;;14.91;71.02;100495.44;4982310;28;118604;-93
2021/12/31 04:27:22;;;;;;;23.17;6.13;;;;;;;14.42;71.16;100425.28;4983621;28;120312;-93
2021/12/31 04:29:56;;;;;;;27.63;6.32;;;;;;;14.63;71.39;100459.19;4969143;28;121571;-93
2021/12/31 04:32:56;;;;;;;21.23;5.28;;;;;;;14.63;71.96;100462.69;5003099;28;118663;-91
2021/12/31 04:35:42;;;;;;;23.98;5.07;;;;;;;14.57;71.31;100445.31;4973128;28;120510;-92
2021/12/31 04:38:17;;;;;;;26.80;5.65;;;;;;;14.76;71.90;100484.44;4971771;28;122702;-93
2021/12/31 04:40:51;;;;;;;25.10;5.57;;;;;;;14.34;72.42;100404.84;4969909;28;122420;-93
2021/12/31 04:43:19;;;;;;;25.83;5.35;;;;;;;14.81;71.90;100478.22;4992792;28;121528;-92
2021/12/31 04:46:20;;;;;;;20.55;5.03;;;;;;;14.87;71.61;100476.28;4969142;28;121656;-92
2021/12/31 04:48:49;;;;;;;17.98;4.85;;;;;;;14.32;71.65;100399.06;4952630;28;120836;-93
2021/12/31 04:52:01;;;;;;;16.67;3.78;;;;;;;14.89;70.87;100495.13;4958532;28;120404;-93
2021/12/31 04:54:29;;;;;;;26.08;5.32;;;;;;;14.56;71.90;100446.56;4962238;28;119112;-93
2021/12/31 04:56:59;;;;;;;30.00;6.38;;;;;;;14.59;72.14;100450.34;4969766;28;121155;-93
2021/12/31 04:59:27;;;;;;;38.42;6.80;;;;;;;14.50;71.24;100425.66;4947613;28;122206;-93
2021/12/31 05:01:53;;;;;;;34.72;6.30;;;;;;;14.56;71.36;100451.31;4971563;28;119403;-93
2021/12/31 05:04:34;;;;;;;26.17;6.57;;;;;;;14.65;72.17;100456.69;4987784;28;120453;-92
2021/12/31 05:07:00;;;;;;;31.08;6.75;;;;;;;14.84;71.05;100484.78;4971666;28;119578;-92
2021/12/31 05:09:29;;;;;;;32.75;7.10;;;;;;;14.55;71.02;100439.53;4968270;28;120669;-93
2021/12/31 05:11:57;;;;;;;34.58;6.95;;;;;;;14.43;71.09;100429.56;4966787;28;122895;-92
2021/12/31 05:14:23;;;;;;;32.45;7.03;;;;;;;14.30;71.78;100421.63;4972233;28;119624;-92
2021/12/31 05:17:02;;;;;;;25.52;7.20;;;;;;;14.53;71.95;100475.13;4983789;28;122592;-91
2021/12/31 05:19:37;;;;;;;;;;;;;;;;;;;;;
2021/12/31 05:22:22;;;;;;;29.17;7.10;;;;;;;14.18;71.67;100408.16;4966753;28;119641;-93
2021/12/31 05:25:01;;;;;;;31.38;7.20;;;;;;;14.17;72.06;100425.94;4985334;28;121983;-92
2021/12/31 05:27:37;;;;;;;27.15;7.00;;;;;;;14.27;72.53;100435.63;4964039;28;119776;-92
2021/12/31 05:30:52;;;;;;;26.95;7.00;;;;;;;14.75;72.13;100496.72;4964902;28;119644;-93
2021/12/31 05:36:57;;;;;;;23.88;6.00;;;;;;;14.62;72.01;100463.94;4996769;28;119706;-95
2021/12/31 05:39:31;;;;;;;21.17;5.75;;;;;;;14.63;72.27;100443.38;4985058;28;119540;-93
2021/12/31 05:42:05;;;;;;;22.63;5.97;;;;;;;14.65;72.44;100442.88;4961082;28;121477;-92
2021/12/31 05:44:33;;;;;;;26.85;5.78;;;;;;;14.48;72.24;100417.88;4966008;28;119643;-92
2021/12/31 05:47:05;;;;;;;29.77;6.13;;;;;;;14.57;72.25;100439.78;4986389;28;119464;-94
2021/12/31 05:49:39;;;;;;;27.60;6.25;;;;;;;14.51;72.39;100444.50;4952786;28;119751;-95
2021/12/31 05:52:15;;;;;;;22.48;6.28;;;;;;;14.50;72.00;100436.69;4966913;28;122569;-92
2021/12/31 05:54:47;;;;;;;33.70;7.35;;;;;;;14.31;71.76;100416.88;4960550;28;120228;-94
2021/12/31 05:57:12;;;;;;;28.67;7.47;;;;;;;14.30;71.91;100407.84;4980307;28;119285;-93
2021/12/31 05:59:38;;;;;;;30.75;7.95;;;;;;;14.48;71.99;100439.19;4960905;28;121931;-92
2021/12/31 06:02:04;;;;;;;27.80;7.15;;;;;;;14.70;73.17;100476.09;4947898;28;123242;-92
2021/12/31 06:04:30;;;;;;;30.08;7.50;;;;;;;14.45;72.92;100416.06;4941739;28;121343;-93
2021/12/31 06:06:55;;;;;;;32.20;8.75;;;;;;;14.72;73.31;100442.50;4955044;28;121013;-93
2021/12/31 06:09:21;;;;;;;29.27;6.88;;;;;;;14.63;73.32;100412.25;4987468;28;119191;-93
2021/12/31 06:11:47;;;;;;;27.38;6.90;;;;;;;14.81;72.16;100450.63;4971204;28;122159;-91
2021/12/31 06:14:12;;;;;;;29.90;7.05;;;;;;;14.58;73.12;100418.47;4974451;28;123310;-94
2021/12/31 06:16:42;;;;;;;28.77;7.18;;;;;;;14.61;72.53;100421.03;4964203;28;119511;-93
2021/12/31 06:19:10;;;;;;;36.95;8.23;;;;;;;14.41;72.25;100399.69;4963281;28;122432;-93
2021/12/31 06:21:37;;;;;;;31.98;7.05;;;;;;;14.86;72.69;100454.69;4951347;28;123009;-93
2021/12/31 06:24:03;;;;;;;36.28;7.72;;;;;;;14.88;72.93;100471.53;4996405;28;120446;-92
2021/12/31 06:26:29;;;;;;;41.58;8.30;;;;;;;14.89;72.33;100457.22;4960988;28;120152;-93
2021/12/31 06:28:54;;;;;;;32.40;7.63;;;;;;;14.85;72.81;100459.44;4965319;28;121678;-92
2021/12/31 06:31:21;;;;;;;35.55;8.00;;;;;;;14.84;73.21;100443.38;4968882;28;119015;-93
2021/12/31 06:33:47;;;;;;;29.48;7.30;;;;;;;14.79;73.04;100441.31;4967109;28;123111;-93
2021/12/31 06:36:12;;;;;;;35.28;8.60;;;;;;;14.83;72.49;100436.31;4984423;28;119449;-93
2021/12/31 06:38:38;;;;;;;33.33;8.63;;;;;;;15.00;72.47;100456.59;4982794;28;121998;-93
2021/12/31 06:41:04;;;;;;;38.60;8.40;;;;;;;15.01;72.17;100469.16;4968151;28;121833;-92
2021/12/31 06:43:35;;;;;;;43.17;9.07;;;;;;;14.98;72.11;100465.38;4957601;28;119740;-92
2021/12/31 06:46:04;;;;;;;32.00;8.13;;;;;;;14.93;72.47;100463.31;4974575;28;121279;-91
2021/12/31 06:48:30;;;;;;;33.55;8.63;;;;;;;14.83;72.33;100448.13;4959140;28;123875;-95
2021/12/31 06:50:55;;;;;;;43.30;9.20;;;;;;;14.91;72.38;100454.75;4961891;28;120940;-93
2021/12/31 06:53:21;;;;;;;43.83;8.68;;;;;;;14.89;72.45;100459.97;4973814;28;122182;-92
2021/12/31 06:55:49;;;;;;;38.83;8.95;;;;;;;14.52;72.69;100399.09;4989580;28;118956;-93
2021/12/31 06:58:19;;;;;;;42.03;9.32;;;;;;;14.87;72.09;100448.66;4966741;27;120475;-93
2021/12/31 07:00:44;;;;;;;39.35;8.75;;;;;;;14.85;72.63;100455.91;4966595;28;123170;-93
2021/12/31 07:03:13;;;;;;;48.20;10.20;;;;;;;14.94;72.01;100484.16;4974351;28;119277;-92
2021/12/31 07:05:43;;;;;;;46.30;10.18;;;;;;;14.89;71.52;100484.84;4970613;28;120052;-92
2021/12/31 07:08:10;;;;;;;41.55;9.60;;;;;;;14.84;71.72;100462.69;4957927;28;120305;-92
2021/12/31 07:10:37;;;;;;;50.50;9.95;;;;;;;14.79;72.15;100463.38;4975222;28;118733;-91
2021/12/31 07:13:10;;;;;;;44.55;10.18;;;;;;;14.82;71.98;100476.22;4969784;28;121483;-93
2021/12/31 07:15:48;;;;;;;49.13;10.25;;;;;;;14.76;71.74;100464.38;4981990;28;123167;-92
2021/12/31 07:18:15;;;;;;;46.40;9.85;;;;;;;14.70;72.02;100476.09;4966125;28;122351;-91
2021/12/31 07:20:41;;;;;;;42.20;10.52;;;;;;;14.63;72.50;100459.94;4954502;28;122072;-93
2021/12/31 07:23:09;;;;;;;55.13;10.52;;;;;;;14.74;72.15;100473.13;4970586;28;118726;-93
2021/12/31 07:25:36;;;;;;;46.55;9.60;;;;;;;14.50;71.43;100431.19;4969600;28;121270;-93
2021/12/31 07:28:02;;;;;;;48.78;9.68;;;;;;;14.50;72.23;100437.47;4993229;28;122521;-92
2021/12/31 07:30:28;;;;;;;41.70;10.00;;;;;;;14.68;72.50;100464.78;4984389;28;119817;-93
2021/12/31 07:32:53;;;;;;;46.25;10.60;;;;;;;14.45;72.72;100431.88;4980973;28;122658;-93
2021/12/31 07:35:20;;;;;;;43.38;9.60;;;;;;;14.78;72.23;100478.44;4969836;28;121897;-94
2021/12/31 07:37:45;;;;;;;40.80;9.48;;;;;;;14.74;71.98;100467.59;4977586;28;118735;-92
2021/12/31 07:40:12;;;;;;;43.83;9.85;;;;;;;14.30;72.04;100412.59;4983083;28;123277;-93
2021/12/31 07:42:38;;;;;;;43.15;9.15;;;;;;;14.76;72.19;100461.59;4968580;28;119421;-93
2021/12/31 07:45:06;;;;;;;41.28;10.02;;;;;;;14.71;71.34;100455.53;4967627;28;120996;-92
2021/12/31 07:47:32;;;;;;;51.03;10.65;;;;;;;14.47;72.65;100434.91;4983611;28;121693;-92
2021/12/31 07:49:57;;;;;;;55.45;10.40;;;;;;;14.33;72.33;100398.59;4967257;28;119335;-92
2021/12/31 07:52:23;;;;;;;41.85;9.10;;;;;;;14.50;72.03;100426.41;4969106;28;121139;-93
2021/12/31 07:54:49;;;;;;;40.00;9.05;;;;;;;14.63;72.05;100457.19;4956208;28;121145;-93
2021/12/31 07:57:14;;;;;;;45.53;9.48;;;;;;;14.70;71.89;100475.34;4976759;28;119537;-92
2021/12/31 07:59:40;;;;;;;36.75;9.00;;;;;;;14.34;72.31;100435.97;4969294;28;123265;-92
2021/12/31 08:02:07;;;;;;;40.55;9.05;;;;;;;14.66;72.41;100481.06;4968604;28;120071;-93
2021/12/31 08:04:33;;;;;;;37.38;8.65;;;;;;;14.59;72.02;100453.13;4973448;28;121369;-93
2021/12/31 08:06:59;;;;;;;41.15;9.07;;;;;;;14.43;72.42;100437.84;4999286;28;121985;-93
2021/12/31 08:09:25;;;;;;;36.45;8.60;;;;;;;14.72;72.17;100509.50;4952171;28;119745;-93
2021/12/31 08:11:51;;;;;;;40.75;8.48;;;;;;;14.52;72.18;100465.34;4981947;28;121162;-92
2021/12/31 08:14:16;;;;;;;43.25;10.57;;;;;;;14.49;71.61;100462.78;4969933;28;122302;-92
2021/12/31 08:16:42;;;;;;;44.60;9.98;;;;;;;14.62;71.77;100472.22;4972443;28;120763;-93
2021/12/31 08:19:08;;;;;;;49.05;10.27;;;;;;;14.68;72.48;100497.16;4971986;28;120931;-95
2021/12/31 08:21:37;;;;;;;51.72;10.57;;;;;;;14.55;72.25;100463.59;4960691;28;119133;-92
2021/12/31 08:24:02;;;;;;;54.97;11.15;;;;;;;14.64;72.09;100483.53;4967934;28;120951;-94
2021/12/31 08:26:28;;;;;;;44.58;9.70;;;;;;;14.68;71.84;100486.88;4951177;28;121993;-93
2021/12/31 08:28:55;;;;;;;47.20;10.23;;;;;;;14.47;72.17;100468.78;4947205;28;118687;-93
2021/12/31 08:31:21;;;;;;;55.78;10.98;;;;;;;14.75;72.81;100485.69;4966344;28;121195;-92
2021/12/31 08:33:47;;;;;;;55.78;10.10;;;;;;;14.77;72.04;100482.44;4963266;28;123508;-92
2021/12/31 08:36:12;;;;;;;44.00;9.80;;;;;;;14.54;72.18;100449.03;4964470;28;119553;-92
2021/12/31 08:38:38;;;;;;;52.45;10.80;;;;;;;14.46;71.82;100420.34;4971212;28;120668;-92
2021/12/31 08:41:04;;;;;;;48.28;10.55;;;;;;;14.74;73.06;100470.38;4980693;28;122090;-93
2021/12/31 08:43:29;;;;;;;57.75;11.32;;;;;;;14.80;72.04;100468.44;4997369;28;119383;-92
2021/12/31 08:45:56;;;;;;;51.22;10.20;;;;;;;14.82;71.40;100473.47;4963861;28;121398;-93
2021/12/31 08:48:22;;;;;;;43.60;10.18;;;;;;;14.83;71.89;100474.97;4960734;28;118652;-93
2021/12/31 08:50:48;;;;;;;57.45;11.82;;;;;;;14.72;71.43;100457.06;4973262;28;122280;-92
2021/12/31 08:53:13;;;;;;;52.60;11.00;;;;;;;14.74;70.95;100465.59;4985095;28;120804;-92
2021/12/31 08:55:39;;;;;;;55.47;11.93;;;;;;;14.32;71.91;100405.34;4963385;28;119411;-92
2021/12/31 08:58:05;;;;;;;53.50;12.05;;;;;;;14.59;72.68;100440.06;4965255;28;121803;-93
2021/12/31 09:00:31;;;;;;;48.10;10.57;;;;;;;14.40;72.07;100405.69;4968160;28;119512;-93
2021/12/31 09:02:56;;;;;;;50.65;10.05;;;;;;;14.28;71.25;100395.75;4966548;28;120069;-91
2021/12/31 09:05:22;;;;;;;41.95;9.75;;;;;;;14.67;71.95;100446.72;4959816;28;122557;-93
2021/12/31 09:07:49;;;;;;;42.88;9.82;;;;;;;14.51;72.56;100438.97;4981088;28;120264;-94
2021/12/31 09:10:16;;;;;;;41.22;8.65;;;;;;;14.50;71.99;100422.91;4969880;28;120001;-93
2021/12/31 09:12:44;;;;;;;42.20;9.15;;;;;;;14.58;71.82;100437.78;4959970;28;122008;-93
2021/12/31 09:15:13;;;;;;;43.45;9.27;;;;;;;14.43;72.27;100419.31;4966901;28;119464;-93
2021/12/31 09:17:40;;;;;;;44.53;9.95;;;;;;;14.42;72.38;100425.28;4966189;28;122556;-92
2021/12/31 09:20:06;;;;;;;45.70;9.65;;;;;;;14.80;72.12;100492.53;4970419;28;121850;-92
2021/12/31 09:22:32;;;;;;;45.95;9.18;;;;;;;14.84;72.02;100493.06;4985546;28;119796;-93
2021/12/31 09:24:58;;;;;;;38.25;8.45;;;;;;;14.73;71.51;100471.63;4988225;28;119341;-92
2021/12/31 09:27:25;;;;;;;43.85;9.07;;;;;;;14.71;71.65;100468.59;4965101;28;120442;-90
2021/12/31 09:29:51;;;;;;;28.98;7.88;;;;;;;14.70;72.04;100473.34;4962265;28;123090;-91
2021/12/31 09:32:17;;;;;;;32.35;7.57;;;;;;;14.69;72.23;100474.59;4966456;28;121266;-93
2021/12/31 09:34:48;;;;;;;30.05;8.18;;;;;;;14.80;72.68;100479.47;4955108;28;119473;-93
2021/12/31 09:37:14;;;;;;;21.75;6.90;;;;;;;14.62;72.48;100461.19;4979971;28;122318;-93
2021/12/31 09:39:40;;;;;;;27.17;6.70;;;;;;;14.44;71.06;100431.13;4968039;28;123497;-92
2021/12/31 09:42:07;;;;;;;25.83;7.50;;;;;;;14.28;72.40;100423.34;4961592;28;119768;-93
2021/12/31 09:44:33;;;;;;;27.73;7.97;;;;;;;14.69;73.29;100493.91;4980762;28;120439;-92
2021/12/31 09:47:07;;;;;;;29.50;7.78;;;;;;;14.42;72.79;100447.34;4974738;28;119337;-94
2021/12/31 09:49:34;;;;;;;24.17;6.05;;;;;;;14.34;73.32;100421.41;4957027;28;122146;-93
2021/12/31 09:52:01;;;;;;;29.27;7.28;;;;;;;14.60;72.10;100479.47;4959968;28;122139;-94
2021/12/31 09:54:27;;;;;;;34.65;7.70;;;;;;;14.66;72.40;100467.25;4965247;28;119450;-94
2021/12/31 09:56:53;;;;;;;39.47;8.50;;;;;;;14.67;73.05;100463.28;4960653;28;122567;-93
2021/12/31 09:59:19;;;;;;;45.90;9.07;;;;;;;14.42;72.33;100439.81;4962335;28;122017;-93
2021/12/31 10:01:49;;;;;;;42.05;9.52;;;;;;;14.32;72.35;100426.66;4978913;28;119704;-93
2021/12/31 10:04:16;;;;;;;40.45;9.00;;;;;;;14.51;72.64;100455.53;4941076;28;122390;-95
2021/12/31 10:07:09;;;;;;;41.70;9.10;;;;;;;14.39;71.78;100456.59;4984148;28;121101;-94
2021/12/31 10:09:38;;;;;;;41.75;9.48;;;;;;;14.64;72.84;100480.78;4938620;28;121331;-92
2021/12/31 10:12:05;;;;;;;36.45;8.85;;;;;;;14.61;73.18;100487.25;4979739;28;119437;-93
2021/12/31 10:14:40;;;;;;;41.42;8.27;;;;;;;14.58;73.01;100468.16;4948784;28;119607;-92
2021/12/31 10:17:09;;;;;;;35.63;8.95;;;;;;;14.48;73.47;100458.50;4964114;28;121659;-94
2021/12/31 10:19:35;;;;;;;41.17;8.88;;;;;;;14.70;73.17;100456.78;4956511;28;120850;-92
2021/12/31 10:22:01;;;;;;;39.85;8.77;;;;;;;14.69;72.74;100482.88;4964189;28;119587;-92
2021/12/31 10:24:39;;;;;;;40.15;9.93;;;;;;;14.74;74.21;100484.19;4965330;28;122580;-92
2021/12/31 10:27:12;;;;;;;50.20;9.90;;;;;;;14.80;73.27;100487.00;4964234;28;120677;-94
2021/12/31 10:29:53;;;;;;;41.47;9.18;;;;;;;14.83;73.24;100480.50;4986500;28;119676;-94
2021/12/31 10:32:19;;;;;;;41.03;8.73;;;;;;;14.88;73.07;100485.31;4966324;28;122171;-92
2021/12/31 10:34:47;;;;;;;38.83;8.68;;;;;;;14.85;72.94;100475.25;4965481;28;118764;-93
2021/12/31 10:37:15;;;;;;;45.22;8.90;;;;;;;14.59;72.95;100451.09;4980504;28;121641;-93
2021/12/31 10:39:42;;;;;;;37.10;8.27;;;;;;;14.42;72.91;100422.50;4989726;28;122114;-92
2021/12/31 10:42:13;;;;;;;30.40;8.00;;;;;;;14.89;72.58;100486.84;4969409;28;121158;-93
2021/12/31 10:44:41;;;;;;;38.47;8.63;;;;;;;14.89;72.90;100492.38;4947415;28;122439;-92
2021/12/31 10:47:27;;;;;;;42.28;9.15;;;;;;;14.80;72.81;100490.50;4982274;28;122125;-92
2021/12/31 10:50:12;;;;;;;35.00;8.75;;;;;;;14.77;72.05;100499.78;4948833;28;119516;-93
2021/12/31 10:52:56;;;;;;;37.38;8.40;;;;;;;14.59;72.29;100456.63;4990928;28;121312;-93
2021/12/31 10:55:27;;;;;;;39.77;8.50;;;;;;;14.53;72.55;100457.81;4947035;28;119424;-93
2021/12/31 10:57:55;;;;;;;41.17;8.27;;;;;;;14.46;72.57;100449.94;4945678;28;121427;-92
2021/12/31 11:00:22;;;;;;;31.00;8.10;;;;;;;14.81;73.15;100494.03;4947982;28;122069;-93
2021/12/31 11:02:48;;;;;;;30.70;8.40;;;;;;;14.86;73.04;100496.09;4961658;28;119615;-93
2021/12/31 11:05:20;;;;;;;25.75;7.10;;;;;;;14.61;72.80;100456.91;4967255;28;121108;-92
2021/12/31 11:07:47;;;;;;;33.35;8.10;;;;;;;14.83;73.04;100502.59;4962973;28;122116;-92
2021/12/31 11:10:17;;;;;;;25.75;6.55;;;;;;;14.68;72.52;100469.56;4949308;28;118823;-92
2021/12/31 11:12:48;;;;;;;22.40;6.45;;;;;;;14.72;73.17;100481.91;4963426;28;121139;-91
2021/12/31 11:15:15;;;;;;;23.45;6.25;;;;;;;14.86;73.01;100505.13;4964892;28;122800;-93
2021/12/31 11:17:41;;;;;;;29.08;7.30;;;;;;;14.84;72.88;100509.63;4950199;28;121580;-93
2021/12/31 11:20:08;;;;;;;23.77;6.75;;;;;;;14.55;73.16;100467.13;4963790;28;122167;-92
2021/12/31 11:22:34;;;;;;;25.63;7.03;;;;;;;14.87;73.20;100503.13;4979526;28;120760;-94
2021/12/31 11:25:24;;;;;;;27.42;6.70;;;;;;;14.87;72.73;100506.66;4948372;28;121372;-92
2021/12/31 11:27:51;;;;;;;29.58;7.57;;;;;;;14.85;72.66;100494.59;4973368;28;123426;-93
2021/12/31 11:30:26;;;;;;;28.63;7.00;;;;;;;14.82;72.91;100501.84;4963155;28;119551;-93
2021/12/31 11:32:56;;;;;;;25.35;7.75;;;;;;;14.66;73.93;100469.25;4983156;28;119593;-94
2021/12/31 11:35:39;;;;;;;29.30;7.88;;;;;;;14.88;73.49;100488.84;4962708;28;122126;-94